Time;durP1;ratioP1;P1;durP2;ratioP2;P2;SDS_P1;SDS_P2;PMS_P1;PMS_P2;Temp;Humidity;BMP_temperature;BMP_pressure;BME280_temperature;BME280_humidity;BME280_pressure;Samples;Min_cycle;Max_cycle;Signal;HPM_P1;HPM_P2
2022/10/12 00:02:18;;;;;;;;;;;;;;;12.60;59.64;102404.13;5086826;28;19924;-51
2022/10/12 00:04:43;;;;;;;;;;;;;;;12.60;59.42;102409.41;5087831;28;20047;-55
2022/10/12 00:07:08;;;;;;;;;;;;;;;12.59;59.54;102408.53;5078257;28;19920;-50
2022/10/12 00:09:34;;;;;;;;;;;;;;;12.60;59.58;102409.41;5082220;28;19935;-52
2022/10/12 00:11:59;;;;;;;;;;;;;;;12.60;59.48;102412.88;5080073;28;19919;-50
2022/10/12 00:14:24;;;;;;;;;;;;;;;12.61;59.55;102416.41;5074144;28;19928;-51
2022/10/12 00:16:50;;;;;;;;;;;;;;;12.60;59.65;102414.69;5078154;28;19932;-52
2022/10/12 00:19:15;;;;;;;;;;;;;;;12.59;59.58;102413.81;5079711;28;19936;-51
2022/10/12 00:21:41;;;;;;;;;;;;;;;12.61;59.85;102413.75;5061653;28;20414;-54
2022/10/12 00:24:06;;;;;;;;;;;;;;;12.60;59.82;102415.53;5077251;28;19924;-54
2022/10/12 00:26:32;;;;;;;;;;;;;;;12.60;59.69;102419.97;5079251;28;20389;-52
2022/10/12 00:29:01;;;;;;;;;;;;;;;12.61;59.65;102416.41;5079318;28;19924;-50
2022/10/12 00:31:27;;;;;;;;;;;;;;;12.59;59.83;102419.09;5084454;28;19969;-55
2022/10/12 00:33:53;;;;;;;;;;;;;;;12.59;59.90;102423.53;5079334;28;19933;-52
2022/10/12 00:36:26;;;;;;;;;;;;;;;12.58;59.76;102421.78;5080404;28;19975;-55
2022/10/12 00:38:52;;;;;;;;;;;;;;;12.57;59.91;102414.78;5080153;28;19924;-50
2022/10/12 00:41:19;;;;;;;;;;;;;;;12.57;59.88;102414.78;5081970;28;19924;-50
2022/10/12 00:43:45;;;;;;;;;;;;;;;12.57;60.00;102414.78;5086417;28;19924;-52
2022/10/12 00:46:15;;;;;;;;;;;;;;;12.57;60.05;102420.06;5083648;28;19955;-51
2022/10/12 00:48:40;;;;;;;;;;;;;;;12.57;60.07;102417.44;5089638;28;19926;-51
2022/10/12 00:51:07;;;;;;;;;;;;;;;12.57;60.10;102420.06;5082021;28;19916;-53
2022/10/12 00:53:39;;;;;;;;;;;;;;;12.57;60.02;102422.72;5079858;28;20012;-52
2022/10/12 00:56:08;;;;;;;;;;;;;;;12.55;60.08;102424.56;5078208;28;19931;-51
2022/10/12 00:58:33;;;;;;;;;;;;;;;12.55;60.19;102428.06;5082800;28;19987;-54
2022/10/12 01:01:00;;;;;;;;;;;;;;;12.54;60.03;102426.34;5092220;28;21801;-51
2022/10/12 01:03:25;;;;;;;;;;;;;;;12.54;60.28;102431.63;5079162;28;19925;-50
2022/10/12 01:05:51;;;;;;;;;;;;;;;12.53;60.14;102429.03;5082512;28;19924;-51
2022/10/12 01:08:16;;;;;;;;;;;;;;;12.52;60.17;102422.03;5082254;28;19920;-52
2022/10/12 01:10:41;;;;;;;;;;;;;;;12.51;60.08;102418.53;5085454;28;19970;-54
2022/10/12 01:13:07;;;;;;;;;;;;;;;12.52;60.26;102416.75;5081222;28;19928;-52
2022/10/12 01:15:35;;;;;;;;;;;;;;;12.51;60.25;102415.91;5084989;28;20031;-52
2022/10/12 01:18:00;;;;;;;;;;;;;;;12.49;60.15;102413.31;5087255;28;21433;-51
2022/10/12 01:20:34;;;;;;;;;;;;;;;12.50;60.40;102422.09;5085544;28;19949;-54
2022/10/12 01:23:09;;;;;;;;;;;;;;;12.49;60.33;102418.59;5085626;28;19946;-54
2022/10/12 01:25:46;;;;;;;;;;;;;;;12.49;60.23;102426.50;5084814;28;19935;-54
2022/10/12 01:28:17;;;;;;;;;;;;;;;12.48;60.26;102422.13;5090873;28;19966;-53
2022/10/12 01:30:47;;;;;;;;;;;;;;;12.48;60.25;102422.13;5079539;28;19916;-50
2022/10/12 01:33:31;;;;;;;;;;;;;;;12.48;60.26;102424.78;5083152;28;19932;-51
2022/10/12 01:36:12;;;;;;;;;;;;;;;12.47;60.35;102423.09;5084869;28;20368;-51
2022/10/12 01:38:46;;;;;;;;;;;;;;;12.47;60.31;102412.53;5075890;28;20068;-51
2022/10/12 01:41:12;;;;;;;;;;;;;;;12.48;60.35;102421.28;5077954;28;20065;-50
2022/10/12 01:43:38;;;;;;;;;;;;;;;12.47;60.34;102425.72;5089129;28;20018;-51
2022/10/12 01:46:05;;;;;;;;;;;;;;;12.48;60.53;102424.78;5080950;28;19920;-52
2022/10/12 01:48:30;;;;;;;;;;;;;;;12.48;60.31;102424.78;5083135;28;19924;-52
2022/10/12 01:50:59;;;;;;;;;;;;;;;12.49;60.31;102423.88;5082528;28;20397;-50
2022/10/12 01:53:30;;;;;;;;;;;;;;;12.49;60.36;102423.00;5088201;28;19923;-53
2022/10/12 01:56:13;;;;;;;;;;;;;;;12.49;60.50;102423.00;5087744;28;19924;-53
2022/10/12 01:58:41;;;;;;;;;;;;;;;12.49;60.41;102423.88;5080328;28;19966;-51
2022/10/12 02:01:21;;;;;;;;;;;;;;;12.50;60.57;102424.75;5082973;28;19924;-52
2022/10/12 02:03:47;;;;;;;;;;;;;;;12.50;60.39;102425.59;5083006;28;19923;-55
2022/10/12 02:06:16;;;;;;;;;;;;;;;12.50;60.47;102425.59;5076787;28;19930;-52
2022/10/12 02:08:44;;;;;;;;;;;;;;;12.50;60.48;102414.19;5083777;28;19991;-50
2022/10/12 02:11:11;;;;;;;;;;;;;;;12.50;60.61;102415.03;5084656;28;19920;-51
2022/10/12 02:13:39;;;;;;;;;;;;;;;12.49;60.48;102418.59;5088180;28;19920;-54
2022/10/12 02:16:08;;;;;;;;;;;;;;;12.49;60.55;102417.75;5081577;28;19935;-54
2022/10/12 02:18:37;;;;;;;;;;;;;;;12.48;60.49;102419.50;5082214;28;19924;-51
2022/10/12 02:21:02;;;;;;;;;;;;;;;12.48;60.70;102416.84;5078122;28;19920;-53
2022/10/12 02:23:28;;;;;;;;;;;;;;;12.48;60.58;102411.56;5084447;28;19928;-51
2022/10/12 02:25:55;;;;;;;;;;;;;;;12.48;60.57;102410.72;5081141;28;20402;-51
2022/10/12 02:28:22;;;;;;;;;;;;;;;12.49;60.57;102415.94;5084704;28;19923;-50
2022/10/12 02:30:52;;;;;;;;;;;;;;;12.48;60.68;102414.22;5079658;28;20374;-50
2022/10/12 02:33:44;;;;;;;;;;;;;;;12.46;60.62;102409.94;5077545;28;19916;-50
2022/10/12 02:36:12;;;;;;;;;;;;;;;12.44;60.78;102423.19;5079169;28;20392;-50
2022/10/12 02:38:40;;;;;;;;;;;;;;;12.44;60.71;102417.94;5085511;28;19920;-52
2022/10/12 02:41:08;;;;;;;;;;;;;;;12.43;61.00;102412.69;5079053;28;19930;-51
2022/10/12 02:43:40;;;;;;;;;;;;;;;12.41;60.75;102412.75;5080521;28;19947;-51
2022/10/12 02:46:08;;;;;;;;;;;;;;;12.41;60.84;102419.81;5081565;28;19924;-50
2022/10/12 02:48:34;;;;;;;;;;;;;;;12.40;60.96;102408.41;5076617;28;21147;-51
2022/10/12 02:51:01;;;;;;;;;;;;;;;12.40;60.99;102411.03;5084069;28;20329;-51
2022/10/12 02:53:27;;;;;;;;;;;;;;;12.41;61.03;102414.53;5087371;28;19971;-52
2022/10/12 02:55:58;;;;;;;;;;;;;;;12.41;60.87;102410.13;5080410;28;20222;-50
2022/10/12 02:58:24;;;;;;;;;;;;;;;12.43;60.87;102408.28;5088786;28;19932;-52
2022/10/12 03:00:49;;;;;;;;;;;;;;;12.42;60.83;102406.56;5083298;28;19942;-52
2022/10/12 03:03:15;;;;;;;;;;;;;;;12.40;60.87;102407.53;5083021;28;19920;-51
2022/10/12 03:05:40;;;;;;;;;;;;;;;12.38;60.99;102409.38;5080787;28;19924;-51
2022/10/12 03:08:05;;;;;;;;;;;;;;;12.38;60.96;102404.94;5078304;28;19924;-50
2022/10/12 03:10:31;;;;;;;;;;;;;;;12.38;60.94;102410.22;5078962;28;19928;-56
2022/10/12 03:12:56;;;;;;;;;;;;;;;12.37;60.92;102416.44;5081698;28;20638;-49
2022/10/12 03:15:21;;;;;;;;;;;;;;;12.35;60.99;102403.28;5083380;28;19924;-51
2022/10/12 03:17:46;;;;;;;;;;;;;;;12.37;61.09;102413.78;5084798;28;20023;-51
2022/10/12 03:20:12;;;;;;;;;;;;;;;12.37;60.90;102405.88;5084299;28;20282;-51
2022/10/12 03:22:37;;;;;;;;;;;;;;;12.36;60.96;102401.50;5079377;28;19928;-51
2022/10/12 03:25:02;;;;;;;;;;;;;;;12.36;61.03;102412.06;5078608;28;19978;-52
2022/10/12 03:27:28;;;;;;;;;;;;;;;12.37;60.95;102407.66;5084671;28;20537;-51
2022/10/12 03:29:53;;;;;;;;;;;;;;;12.34;61.06;102409.50;5079308;28;19978;-51
2022/10/12 03:32:19;;;;;;;;;;;;;;;12.34;61.01;102400.69;5079393;28;19975;-54
2022/10/12 03:34:44;;;;;;;;;;;;;;;12.33;61.30;102406.91;5082502;28;19926;-51
2022/10/12 03:37:09;;;;;;;;;;;;;;;12.33;61.12;102409.53;5082040;28;19920;-51
2022/10/12 03:39:35;;;;;;;;;;;;;;;12.33;61.18;102407.78;5083549;28;20029;-54
2022/10/12 03:42:00;;;;;;;;;;;;;;;12.33;61.29;102406.91;5089658;28;20335;-52
2022/10/12 03:44:25;;;;;;;;;;;;;;;12.33;61.35;102407.78;5086447;28;19940;-49
2022/10/12 03:46:51;;;;;;;;;;;;;;;12.34;61.37;102414.78;5090548;28;19928;-51
2022/10/12 03:49:16;;;;;;;;;;;;;;;12.33;61.36;102412.19;5085849;28;19924;-51
2022/10/12 03:51:41;;;;;;;;;;;;;;;12.33;61.36;102418.34;5089009;28;20366;-51
2022/10/12 03:54:06;;;;;;;;;;;;;;;12.34;61.39;102408.63;5087126;28;19928;-52
2022/10/12 03:56:32;;;;;;;;;;;;;;;12.33;61.39;102422.72;5086394;28;19923;-53
2022/10/12 03:58:57;;;;;;;;;;;;;;;12.31;61.42;102414.88;5091257;28;20014;-51
2022/10/12 04:01:22;;;;;;;;;;;;;;;12.31;61.30;102411.41;5087446;28;19928;-53
2022/10/12 04:03:48;;;;;;;;;;;;;;;12.28;61.40;102408.88;5082911;28;19924;-52
2022/10/12 04:06:13;;;;;;;;;;;;;;;12.25;61.53;102415.09;5079520;28;19932;-54
2022/10/12 04:08:38;;;;;;;;;;;;;;;12.27;61.50;102418.56;5087415;28;21475;-52
2022/10/12 04:11:04;;;;;;;;;;;;;;;12.27;61.30;102418.56;5078506;28;20015;-51
2022/10/12 04:13:29;;;;;;;;;;;;;;;12.26;61.27;102415.97;5080079;28;19924;-51
2022/10/12 04:15:59;;;;;;;;;;;;;;;12.27;61.57;102420.34;5077173;28;19935;-53
2022/10/12 04:18:25;;;;;;;;;;;;;;;12.25;61.42;102417.75;5083313;28;19930;-50
2022/10/12 04:20:50;;;;;;;;;;;;;;;12.27;61.26;102418.56;5077863;28;19928;-54
2022/10/12 04:23:16;;;;;;;;;;;;;;;12.27;61.29;102418.56;5078234;28;19951;-51
2022/10/12 04:25:41;;;;;;;;;;;;;;;12.27;61.31;102417.72;5087702;28;20393;-52
2022/10/12 04:28:06;;;;;;;;;;;;;;;12.27;61.50;102415.06;5080547;28;19935;-52
2022/10/12 04:30:32;;;;;;;;;;;;;;;12.27;61.50;102422.97;5080371;28;19947;-54
2022/10/12 04:32:58;;;;;;;;;;;;;;;12.27;61.62;102423.84;5070857;28;19927;-50
2022/10/12 04:35:23;;;;;;;;;;;;;;;12.27;61.69;102429.09;5069692;28;19924;-51
2022/10/12 04:37:49;;;;;;;;;;;;;;;12.27;61.61;102421.19;5076230;28;20328;-50
2022/10/12 04:40:14;;;;;;;;;;;;;;;12.27;61.60;102425.63;5081453;28;19974;-54
2022/10/12 04:42:39;;;;;;;;;;;;;;;12.26;61.58;102426.53;5080516;28;19924;-51
2022/10/12 04:45:05;;;;;;;;;;;;;;;12.27;61.60;102420.34;5077978;28;19924;-51
2022/10/12 04:47:32;;;;;;;;;;;;;;;12.26;61.66;102418.63;5103371;22;19920;-53
2022/10/12 04:49:57;;;;;;;;;;;;;;;12.27;61.68;102415.06;5086670;28;20018;-56
2022/10/12 04:52:22;;;;;;;;;;;;;;;12.28;61.76;102424.72;5079527;28;19993;-57
2022/10/12 04:54:48;;;;;;;;;;;;;;;12.29;61.61;102426.44;5076373;28;19923;-56
2022/10/12 04:57:13;;;;;;;;;;;;;;;12.29;61.57;102423.78;5078216;28;19924;-56
2022/10/12 04:59:39;;;;;;;;;;;;;;;12.28;61.58;102430.84;5091976;28;19921;-53
2022/10/12 05:02:04;;;;;;;;;;;;;;;12.27;61.67;102433.53;5091118;28;19943;-53
2022/10/12 05:04:29;;;;;;;;;;;;;;;12.27;61.78;102433.53;5091747;28;20400;-53
2022/10/12 05:06:55;;;;;;;;;;;;;;;12.26;61.94;102437.09;5086126;28;19916;-53
2022/10/12 05:09:20;;;;;;;;;;;;;;;12.27;61.85;102433.53;5090220;28;19930;-53
2022/10/12 05:11:45;;;;;;;;;;;;;;;12.27;61.71;102438.81;5090818;28;20390;-53
2022/10/12 05:14:11;;;;;;;;;;;;;;;12.28;61.92;102440.53;5090182;28;19927;-55
2022/10/12 05:16:36;;;;;;;;;;;;;;;12.28;61.70;102435.28;5086552;28;19973;-53
2022/10/12 05:19:01;;;;;;;;;;;;;;;12.27;61.77;102439.66;5093808;28;19916;-53
2022/10/12 05:21:26;;;;;;;;;;;;;;;12.26;61.80;102437.94;5090187;28;19974;-53
2022/10/12 05:23:52;;;;;;;;;;;;;;;12.26;61.96;102442.38;5088225;28;20402;-53
2022/10/12 05:26:17;;;;;;;;;;;;;;;12.24;61.79;102438.94;5090745;28;19916;-57
2022/10/12 05:28:43;;;;;;;;;;;;;;;12.22;61.92;102444.28;5093134;28;19924;-53
2022/10/12 05:31:08;;;;;;;;;;;;;;;12.20;61.97;102439.03;5093005;28;19923;-54
2022/10/12 05:33:33;;;;;;;;;;;;;;;12.20;61.85;102448.75;5093750;28;19920;-53
2022/10/12 05:35:59;;;;;;;;;;;;;;;12.19;61.99;102441.75;5090828;28;19916;-53
2022/10/12 05:38:24;;;;;;;;;;;;;;;12.17;62.01;102452.38;5083529;28;19924;-53
2022/10/12 05:40:49;;;;;;;;;;;;;;;12.18;62.03;102458.50;5095647;28;19930;-54
2022/10/12 05:43:15;;;;;;;;;;;;;;;12.16;61.99;102458.56;5087638;28;19924;-56
2022/10/12 05:45:41;;;;;;;;;;;;;;;12.17;62.06;102459.41;5091979;28;19920;-53
2022/10/12 05:48:06;;;;;;;;;;;;;;;12.17;62.03;102460.28;5087239;28;19916;-53
2022/10/12 05:50:31;;;;;;;;;;;;;;;12.16;62.10;102448.00;5090234;28;19989;-53
2022/10/12 05:52:57;;;;;;;;;;;;;;;12.15;62.03;102446.28;5078689;28;19927;-54
2022/10/12 05:55:22;;;;;;;;;;;;;;;12.15;61.87;102455.97;5089171;28;19920;-53
2022/10/12 05:57:48;;;;;;;;;;;;;;;12.13;62.13;102458.69;5086263;28;20011;-53
2022/10/12 06:00:14;;;;;;;;;;;;;;;12.12;62.03;102454.31;5090754;28;19923;-56
2022/10/12 06:02:39;;;;;;;;;;;;;;;12.12;62.01;102464.88;5089824;28;19924;-54
2022/10/12 06:05:05;;;;;;;;;;;;;;;12.10;62.00;102453.50;5091264;28;19920;-53
2022/10/12 06:07:30;;;;;;;;;;;;;;;12.08;61.91;102455.34;5089430;28;20298;-53
2022/10/12 06:09:55;;;;;;;;;;;;;;;12.08;62.17;102457.13;5085940;28;19927;-55
2022/10/12 06:12:21;;;;;;;;;;;;;;;12.06;61.93;102470.34;5086093;28;20454;-54
2022/10/12 06:14:46;;;;;;;;;;;;;;;12.06;62.00;102461.59;5089722;28;20380;-56
2022/10/12 06:17:14;;;;;;;;;;;;;;;12.05;62.16;102455.44;5086789;28;19924;-54
2022/10/12 06:19:40;;;;;;;;;;;;;;;12.06;61.99;102466.88;5087302;28;20065;-56
2022/10/12 06:22:05;;;;;;;;;;;;;;;12.06;62.08;102467.72;5090880;28;20687;-53
2022/10/12 06:24:30;;;;;;;;;;;;;;;12.06;62.00;102459.81;5086698;28;19920;-56
2022/10/12 06:26:56;;;;;;;;;;;;;;;12.05;61.91;102463.34;5086826;28;19928;-53
2022/10/12 06:29:22;;;;;;;;;;;;;;;12.04;62.03;102469.53;5093745;28;19916;-57
2022/10/12 06:31:48;;;;;;;;;;;;;;;12.04;61.98;102467.78;5088083;28;19924;-55
2022/10/12 06:34:14;;;;;;;;;;;;;;;12.04;61.88;102472.19;5090811;28;19943;-53
2022/10/12 06:36:41;;;;;;;;;;;;;;;12.02;61.69;102477.53;5086552;28;20549;-53
2022/10/12 06:39:07;;;;;;;;;;;;;;;12.01;61.90;102480.22;5087967;28;19924;-54
2022/10/12 06:41:32;;;;;;;;;;;;;;;12.00;62.02;102478.50;5087019;28;19916;-53
2022/10/12 06:43:58;;;;;;;;;;;;;;;12.01;61.81;102469.69;5089604;28;19916;-53
2022/10/12 06:46:23;;;;;;;;;;;;;;;12.01;61.80;102477.59;5085751;28;21085;-54
2022/10/12 06:48:48;;;;;;;;;;;;;;;12.03;61.66;102475.72;5090507;28;19959;-55
2022/10/12 06:51:14;;;;;;;;;;;;;;;12.04;61.63;102480.09;5084933;28;19951;-54
2022/10/12 06:53:39;;;;;;;;;;;;;;;12.03;61.74;102479.25;5085778;28;19928;-54
2022/10/12 06:56:05;;;;;;;;;;;;;;;12.05;61.76;102473.91;5080743;28;19977;-54
2022/10/12 06:58:30;;;;;;;;;;;;;;;12.05;61.56;102476.53;5088175;28;19924;-54
2022/10/12 07:00:56;;;;;;;;;;;;;;;12.05;61.76;102476.53;5087032;28;19990;-55
2022/10/12 07:03:24;;;;;;;;;;;;;;;12.07;61.63;102480.00;5086968;28;19924;-53
2022/10/12 07:05:49;;;;;;;;;;;;;;;12.08;61.74;102476.44;5085471;28;20404;-56
2022/10/12 07:08:14;;;;;;;;;;;;;;;12.08;61.91;102476.44;5086615;28;19920;-57
2022/10/12 07:10:40;;;;;;;;;;;;;;;12.10;61.76;102479.03;5079457;28;20364;-55
2022/10/12 07:13:05;;;;;;;;;;;;;;;12.12;61.67;102488.63;5086173;28;19973;-55
2022/10/12 07:15:30;;;;;;;;;;;;;;;12.15;61.88;102485.00;5088531;28;19978;-56
2022/10/12 07:17:56;;;;;;;;;;;;;;;12.15;61.75;102488.50;5085321;28;19974;-53
2022/10/12 07:20:21;;;;;;;;;;;;;;;12.17;61.85;102481.41;5087241;28;19927;-53
2022/10/12 07:22:46;;;;;;;;;;;;;;;12.19;61.85;102481.34;5085514;28;19936;-53
2022/10/12 07:25:12;;;;;;;;;;;;;;;12.20;61.71;102480.41;5088219;28;20404;-55
2022/10/12 07:27:37;;;;;;;;;;;;;;;12.22;61.82;102477.72;5067556;28;19945;-55
2022/10/12 07:30:02;;;;;;;;;;;;;;;12.25;61.79;102488.16;5090865;28;19920;-54
2022/10/12 07:32:28;;;;;;;;;;;;;;;12.27;61.70;102481.06;5086018;28;19916;-54
2022/10/12 07:34:53;;;;;;;;;;;;;;;12.29;61.83;102479.22;5087468;28;20489;-56
2022/10/12 07:37:18;;;;;;;;;;;;;;;12.32;61.75;102473.84;5082228;28;20480;-55
2022/10/12 07:39:44;;;;;;;;;;;;;;;12.33;61.65;102480.81;5087194;28;19946;-54
2022/10/12 07:42:09;;;;;;;;;;;;;;;12.35;61.64;102484.25;5087821;28;20300;-54
2022/10/12 07:44:34;;;;;;;;;;;;;;;12.38;61.75;102486.78;5086388;28;19916;-53
2022/10/12 07:47:00;;;;;;;;;;;;;;;12.39;61.64;102485.88;5081724;28;19931;-54
2022/10/12 07:49:25;;;;;;;;;;;;;;;12.41;61.64;102489.31;5081320;28;19971;-53
2022/10/12 07:51:50;;;;;;;;;;;;;;;12.43;61.80;102486.59;5084036;28;20023;-52
2022/10/12 07:54:16;;;;;;;;;;;;;;;12.44;61.81;102486.56;5093349;28;20293;-53
2022/10/12 07:56:41;;;;;;;;;;;;;;;12.47;61.58;102489.09;5087435;28;19971;-56
2022/10/12 07:59:06;;;;;;;;;;;;;;;12.52;61.68;102493.31;5086086;28;19921;-54
2022/10/12 08:01:33;;;;;;;;;;;;;;;12.52;61.66;102494.19;5092164;28;20406;-55
2022/10/12 08:03:58;;;;;;;;;;;;;;;12.54;61.65;102495.00;5089150;28;20033;-55
2022/10/12 08:06:25;;;;;;;;;;;;;;;12.56;61.78;102497.56;5087701;28;20400;-56
2022/10/12 08:08:51;;;;;;;;;;;;;;;12.57;61.61;102494.00;5083608;28;20123;-55
2022/10/12 08:11:17;;;;;;;;;;;;;;;12.60;61.52;102492.09;5085802;28;20312;-55
2022/10/12 08:13:42;;;;;;;;;;;;;;;12.63;61.61;102486.72;5087903;28;19991;-54
2022/10/12 08:16:12;;;;;;;;;;;;;;;12.66;61.55;102496.28;5087170;28;20015;-53
2022/10/12 08:18:38;;;;;;;;;;;;;;;12.67;61.51;102483.97;5086420;28;20005;-53
2022/10/12 08:21:04;;;;;;;;;;;;;;;12.67;61.56;102487.44;5082872;28;20488;-55
2022/10/12 08:23:29;;;;;;;;;;;;;;;12.70;61.48;102487.34;5072258;28;19939;-52
2022/10/12 08:25:55;;;;;;;;;;;;;;;12.73;61.39;102492.50;5088875;28;20265;-52
2022/10/12 08:28:21;;;;;;;;;;;;;;;12.75;61.51;102493.31;5083745;28;19939;-57
2022/10/12 08:30:46;;;;;;;;;;;;;;;12.78;61.54;102498.44;5089077;28;19928;-54
2022/10/12 08:33:12;;;;;;;;;;;;;;;12.81;61.39;102500.97;5094967;28;20457;-54
2022/10/12 08:35:41;;;;;;;;;;;;;;;12.87;61.54;102496.38;5090933;28;19995;-54
2022/10/12 08:38:06;;;;;;;;;;;;;;;12.90;61.24;102491.00;5096029;28;20393;-57
2022/10/12 08:40:34;;;;;;;;;;;;;;;12.92;61.31;102486.50;5091288;28;19922;-54
2022/10/12 08:43:28;;;;;;;;;;;;;;;12.95;61.40;102494.28;5089337;28;20403;-54
2022/10/12 08:45:55;;;;;;;;;;;;;;;12.99;61.38;102489.75;5093815;28;20297;-53
2022/10/12 08:48:24;;;;;;;;;;;;;;;13.02;61.21;102490.50;5078362;28;19931;-54
2022/10/12 08:50:55;;;;;;;;;;;;;;;13.06;61.31;102486.81;5074740;28;20304;-54
2022/10/12 08:53:22;;;;;;;;;;;;;;;13.09;61.24;102489.31;5091578;28;19981;-54
2022/10/12 08:55:48;;;;;;;;;;;;;;;13.14;61.07;102490.91;5090824;28;19968;-57
2022/10/12 08:58:19;;;;;;;;;;;;;;;13.18;61.13;102484.59;5094056;28;19999;-56
2022/10/12 09:00:47;;;;;;;;;;;;;;;13.20;60.94;102480.09;5087252;28;20050;-58
2022/10/12 09:03:18;;;;;;;;;;;;;;;13.24;61.00;102482.53;5082886;28;20440;-55
2022/10/12 09:05:49;;;;;;;;;;;;;;;13.29;60.90;102484.16;5089101;28;19939;-55
2022/10/12 09:08:30;;;;;;;;;;;;;;;13.35;60.80;102478.59;5091824;28;20003;-55
2022/10/12 09:11:07;;;;;;;;;;;;;;;13.42;60.68;102485.38;5086269;28;19916;-56
2022/10/12 09:13:41;;;;;;;;;;;;;;;13.48;60.70;102486.91;5088127;28;19971;-55
2022/10/12 09:16:16;;;;;;;;;;;;;;;13.51;60.60;102478.84;5086606;28;20257;-55
2022/10/12 09:18:47;;;;;;;;;;;;;;;13.56;60.72;102475.06;5086976;28;19912;-55
2022/10/12 09:21:15;;;;;;;;;;;;;;;13.62;60.57;102473.94;5089361;28;20388;-55
2022/10/12 09:23:43;;;;;;;;;;;;;;;13.67;60.51;102474.63;5087829;28;19931;-56
2022/10/12 09:26:16;;;;;;;;;;;;;;;13.72;60.61;102469.97;5090615;28;19920;-56
2022/10/12 09:28:47;;;;;;;;;;;;;;;13.78;60.50;102468.84;5089485;28;20362;-55
2022/10/12 09:31:30;;;;;;;;;;;;;;;13.83;60.38;102466.03;5068542;28;19920;-55
2022/10/12 09:33:57;;;;;;;;;;;;;;;13.86;60.28;102472.03;5087775;28;20399;-56
2022/10/12 09:36:24;;;;;;;;;;;;;;;13.93;60.22;102475.25;5091448;28;19916;-54
2022/10/12 09:38:50;;;;;;;;;;;;;;;13.98;60.14;102475.94;5091886;28;19923;-55
2022/10/12 09:41:20;;;;;;;;;;;;;;;14.02;60.17;102480.13;5087783;28;19916;-57
2022/10/12 09:43:47;;;;;;;;;;;;;;;14.07;59.91;102476.44;5087625;28;19939;-57
2022/10/12 09:46:14;;;;;;;;;;;;;;;14.11;59.81;102475.38;5089180;28;19920;-57
2022/10/12 09:48:54;;;;;;;;;;;;;;;14.16;59.96;102468.06;5089436;28;19916;-58
2022/10/12 09:51:23;;;;;;;;;;;;;;;14.20;59.86;102467.00;5092524;28;20023;-57
2022/10/12 09:53:49;;;;;;;;;;;;;;;14.26;59.58;102472.03;5085077;28;19920;-56
2022/10/12 09:56:26;;;;;;;;;;;;;;;14.31;59.76;102471.81;5087917;28;19963;-61
2022/10/12 09:58:56;;;;;;;;;;;;;;;14.36;59.71;102474.25;5087185;28;19920;-60
2022/10/12 10:01:26;;;;;;;;;;;;;;;14.38;59.54;102470.56;5086419;28;19971;-54
2022/10/12 10:04:07;;;;;;;;;;;;;;;14.40;59.55;102473.19;5085423;28;19928;-60
2022/10/12 10:06:33;;;;;;;;;;;;;;;14.41;59.54;102475.75;5069285;28;20396;-59
2022/10/12 10:08:58;;;;;;;;;;;;;;;14.41;59.30;102469.59;5088603;28;19974;-55
2022/10/12 10:11:25;;;;;;;;;;;;;;;14.41;59.17;102472.25;5091782;28;19935;-54
2022/10/12 10:13:52;;;;;;;;;;;;;;;14.40;59.14;102467.88;5088447;28;19955;-55
2022/10/12 10:16:19;;;;;;;;;;;;;;;14.41;59.11;102464.31;5087247;28;19935;-55
2022/10/12 10:19:04;;;;;;;;;;;;;;;14.40;58.94;102466.06;5090695;28;19916;-56
2022/10/12 10:21:34;;;;;;;;;;;;;;;14.40;58.80;102462.59;5087321;28;20375;-54
2022/10/12 10:24:01;;;;;;;;;;;;;;;14.38;58.89;102461.78;5086274;28;19916;-57
2022/10/12 10:26:28;;;;;;;;;;;;;;;14.37;58.92;102457.41;5089992;28;19920;-57
2022/10/12 10:29:11;;;;;;;;;;;;;;;14.36;58.92;102447.75;5085419;28;19970;-56
2022/10/12 10:31:37;;;;;;;;;;;;;;;14.38;58.85;102456.50;5088009;28;19916;-54
2022/10/12 10:34:14;;;;;;;;;;;;;;;14.38;58.82;102452.03;5089026;28;19935;-57
2022/10/12 10:36:44;;;;;;;;;;;;;;;14.40;58.84;102449.34;5091332;28;19928;-57
2022/10/12 10:39:22;;;;;;;;;;;;;;;14.41;58.77;102451.06;5086503;28;19920;-54
2022/10/12 10:41:48;;;;;;;;;;;;;;;14.42;58.78;102453.63;5070887;28;19997;-57
2022/10/12 10:44:21;;;;;;;;;;;;;;;14.43;58.53;102455.34;5087089;28;19920;-54
2022/10/12 10:46:47;;;;;;;;;;;;;;;14.43;58.38;102450.03;5079699;28;19961;-56
2022/10/12 10:49:25;;;;;;;;;;;;;;;14.42;58.28;102448.31;5089070;28;19920;-58
2022/10/12 10:51:52;;;;;;;;;;;;;;;14.44;58.28;102441.19;5091177;28;19970;-56
2022/10/12 10:54:20;;;;;;;;;;;;;;;14.48;58.34;102447.19;5087639;28;19924;-53
2022/10/12 10:56:46;;;;;;;;;;;;;;;14.52;58.28;102442.63;5085812;28;20085;-54
2022/10/12 10:59:17;;;;;;;;;;;;;;;14.54;58.37;102433.66;5089348;28;20494;-55
2022/10/12 11:01:48;;;;;;;;;;;;;;;14.59;58.31;102436.97;5085863;28;19912;-54
2022/10/12 11:04:34;;;;;;;;;;;;;;;14.63;58.27;102430.56;5079430;28;20404;-53
2022/10/12 11:07:09;;;;;;;;;;;;;;;14.71;58.28;102432.03;5086842;28;19965;-53
2022/10/12 11:09:42;;;;;;;;;;;;;;;14.78;58.20;102431.66;5087112;28;19920;-54
2022/10/12 11:12:15;;;;;;;;;;;;;;;14.86;58.08;102425.09;5069780;28;19962;-54
2022/10/12 11:14:48;;;;;;;;;;;;;;;14.91;57.77;102421.28;5087546;28;19912;-54
2022/10/12 11:17:23;;;;;;;;;;;;;;;14.97;57.77;102416.63;5085236;28;19917;-54
2022/10/12 11:19:56;;;;;;;;;;;;;;;14.97;57.88;102412.19;5084827;28;20472;-57
2022/10/12 11:22:26;;;;;;;;;;;;;;;14.99;57.86;102417.41;5087557;28;20023;-53
2022/10/12 11:25:04;;;;;;;;;;;;;;;15.00;57.66;102417.31;5087210;28;20311;-54
2022/10/12 11:27:36;;;;;;;;;;;;;;;15.02;57.70;102414.63;5086465;28;20449;-53
2022/10/12 11:30:05;;;;;;;;;;;;;;;15.02;57.52;102410.16;5087248;28;19920;-54
2022/10/12 11:32:33;;;;;;;;;;;;;;;15.03;57.46;102416.34;5086697;28;19912;-55
2022/10/12 11:35:01;;;;;;;;;;;;;;;15.02;57.41;102414.63;5087454;28;19966;-53
2022/10/12 11:37:34;;;;;;;;;;;;;;;15.05;57.42;102415.31;5086385;28;19931;-54
2022/10/12 11:40:01;;;;;;;;;;;;;;;15.09;57.23;102422.19;5088142;28;20274;-53
2022/10/12 11:42:30;;;;;;;;;;;;;;;15.15;57.03;102413.06;5083602;28;19932;-54
2022/10/12 11:44:55;;;;;;;;;;;;;;;15.22;56.93;102417.09;5087307;28;20023;-54
2022/10/12 11:47:44;;;;;;;;;;;;;;;15.29;56.82;102411.50;5069167;28;20022;-54
2022/10/12 11:50:29;;;;;;;;;;;;;;;15.37;56.58;102409.28;5096200;28;20050;-54
2022/10/12 11:52:55;;;;;;;;;;;;;;;15.44;56.45;102409.84;5085673;28;20397;-53
2022/10/12 11:55:43;;;;;;;;;;;;;;;15.47;56.22;102405.25;5089127;28;20320;-55
2022/10/12 11:58:12;;;;;;;;;;;;;;;15.50;55.93;102405.06;5090991;28;19966;-53
2022/10/12 12:00:40;;;;;;;;;;;;;;;15.49;55.76;102403.38;5115645;22;19939;-53
2022/10/12 12:03:19;;;;;;;;;;;;;;;15.48;55.84;102406.09;5091014;28;19943;-52
2022/10/12 12:05:45;;;;;;;;;;;;;;;15.45;55.90;102396.50;5093345;28;20363;-55
2022/10/12 12:08:20;;;;;;;;;;;;;;;15.46;55.95;102395.56;5084520;28;19934;-58
2022/10/12 12:10:50;;;;;;;;;;;;;;;15.47;55.82;102397.28;5104340;28;19920;-53
2022/10/12 12:13:17;;;;;;;;;;;;;;;15.49;55.78;102392.78;5109920;28;20484;-50
2022/10/12 12:16:02;;;;;;;;;;;;;;;15.53;55.75;102386.34;5111483;28;20295;-54
2022/10/12 12:18:29;;;;;;;;;;;;;;;15.57;55.53;102383.53;5109325;28;19915;-55
2022/10/12 12:21:04;;;;;;;;;;;;;;;15.65;55.42;102379.53;5108075;28;20335;-54
2022/10/12 12:23:36;;;;;;;;;;;;;;;15.74;55.26;102372.88;5109493;28;19935;-58
2022/10/12 12:26:08;;;;;;;;;;;;;;;15.81;55.07;102374.25;5100668;28;20178;-54
2022/10/12 12:28:33;;;;;;;;;;;;;;;15.87;54.87;102370.47;5105188;28;20358;-57
2022/10/12 12:31:01;;;;;;;;;;;;;;;15.92;54.85;102372.84;5108721;28;19920;-54
2022/10/12 12:33:29;;;;;;;;;;;;;;;15.99;54.84;102366.25;5104823;28;19924;-55
2022/10/12 12:35:57;;;;;;;;;;;;;;;16.03;54.81;102370.47;5113528;28;19924;-54
2022/10/12 12:38:28;;;;;;;;;;;;;;;16.06;54.63;102367.66;5106940;28;20437;-54
2022/10/12 12:40:56;;;;;;;;;;;;;;;16.07;54.67;102364.06;5107460;28;19934;-53